Terminal Aerodrome Forecast
Issued by NWS North Platte, NE

Home | Current Version | Previous Version | Text Only | Print | Product List | Glossary On
Versions: 1 2 3 4 5 6 7 8 9 10 11 12 13
000
FTUS43 KLBF 172320
TAFVTN
TAF
KVTN 172320Z 1800/1824 02014KT P6SM VCSH SCT025 BKN090 OVC110
     FM180300 01011G19KT 5SM -RASN OVC008
     FM180500 36014G26KT 3SM -SN OVC010
     FM180800 33016G24KT P6SM BKN008 OVC015
     FM181000 31019G38KT P6SM SCT140=

USA.gov is the U.S. government's official web portal to all federal, state and local government web resources and services.